createdAt,value
2023-04-18T00:02:19.654Z,13.30
2023-04-18T00:05:22.685Z,16.08
2023-04-18T00:08:25.411Z,15.88
2023-04-18T00:11:28.456Z,13.17
2023-04-18T00:14:30.973Z,15.77
2023-04-18T00:17:33.691Z,11.38
2023-04-18T00:20:38.929Z,15.20
2023-04-18T00:23:41.753Z,14.00
2023-04-18T00:26:44.301Z,14.47
2023-04-18T00:29:47.515Z,8.90
2023-04-18T00:32:51.715Z,15.40
2023-04-18T00:35:54.905Z,13.15
2023-04-18T00:38:57.501Z,12.90
2023-04-18T00:42:01.291Z,10.77
2023-04-18T00:45:04.092Z,20.00
2023-04-18T00:48:07.790Z,15.23
2023-04-18T00:51:11.598Z,13.38
2023-04-18T00:54:15.399Z,10.75
2023-04-18T00:57:18.334Z,13.33
2023-04-18T01:00:22.031Z,8.27
2023-04-18T01:03:26.185Z,11.88
2023-04-18T01:06:29.498Z,14.63
2023-04-18T01:09:32.097Z,16.12
2023-04-18T01:12:34.953Z,12.30
2023-04-18T01:15:37.564Z,10.57
2023-04-18T01:18:40.465Z,12.13
2023-04-18T01:21:43.998Z,13.80
2023-04-18T01:24:48.111Z,10.82
2023-04-18T01:27:54.357Z,9.30
2023-04-18T01:30:57.238Z,11.03
2023-04-18T01:33:59.877Z,14.23
2023-04-18T01:37:02.904Z,14.32
2023-04-18T01:40:05.949Z,9.18
2023-04-18T01:43:08.924Z,10.93
2023-04-18T01:46:13.248Z,10.77
2023-04-18T01:49:16.482Z,10.40
2023-04-18T01:52:19.172Z,12.32
2023-04-18T01:55:22.259Z,11.63
2023-04-18T01:58:25.389Z,15.00
2023-04-18T02:01:28.247Z,13.47
2023-04-18T02:04:31.101Z,10.52
2023-04-18T02:07:33.637Z,10.05
2023-04-18T02:10:36.544Z,4.15
2023-04-18T02:13:39.817Z,10.60
2023-04-18T02:16:42.656Z,6.17
2023-04-18T02:19:45.659Z,11.60
2023-04-18T02:22:48.552Z,8.45
2023-04-18T02:25:51.067Z,9.70
2023-04-18T02:28:53.953Z,11.70
2023-04-18T02:31:58.470Z,11.27
2023-04-18T02:35:01.532Z,11.98
2023-04-18T02:38:04.276Z,10.25
2023-04-18T02:41:07.100Z,11.70
2023-04-18T02:44:09.714Z,10.97
2023-04-18T02:47:13.288Z,9.77
2023-04-18T02:50:16.616Z,6.97
2023-04-18T02:53:19.484Z,10.05
2023-04-18T02:56:23.002Z,8.35
2023-04-18T02:59:41.672Z,11.90
2023-04-18T03:02:45.213Z,9.93
2023-04-18T03:05:48.892Z,7.85
2023-04-18T03:08:51.840Z,9.57
2023-04-18T03:11:55.558Z,11.48
2023-04-18T03:14:58.884Z,8.03
2023-04-18T03:18:02.935Z,6.63
2023-04-18T03:21:07.220Z,10.45
2023-04-18T03:24:12.332Z,10.15
2023-04-18T03:27:15.993Z,8.20
2023-04-18T03:30:19.081Z,10.73
2023-04-18T03:33:24.110Z,8.23
2023-04-18T03:36:28.804Z,8.40
2023-04-18T03:39:31.899Z,8.23
2023-04-18T03:42:35.379Z,9.52
2023-04-18T03:45:38.212Z,11.97
2023-04-18T03:48:40.986Z,8.30
2023-04-18T03:51:49.670Z,7.12
2023-04-18T03:54:53.530Z,8.13
2023-04-18T03:57:58.475Z,7.50
2023-04-18T04:01:01.634Z,10.10
2023-04-18T04:04:05.504Z,7.63
2023-04-18T04:07:08.075Z,8.77
2023-04-18T04:10:11.952Z,10.48
2023-04-18T04:13:14.498Z,7.15
2023-04-18T04:16:17.771Z,6.23
2023-04-18T04:19:21.083Z,10.60
2023-04-18T04:22:24.877Z,7.35
2023-04-18T04:25:28.844Z,10.18
2023-04-18T04:28:32.020Z,9.90
2023-04-18T04:31:35.737Z,11.20
2023-04-18T04:34:41.373Z,11.10
2023-04-18T04:37:45.219Z,8.30
2023-04-18T04:40:49.795Z,7.87
2023-04-18T04:43:53.877Z,13.00
2023-04-18T04:46:57.553Z,11.70
2023-04-18T04:50:00.830Z,12.57
2023-04-18T04:53:06.812Z,18.23
2023-04-18T04:56:09.504Z,14.48
2023-04-18T04:59:12.383Z,12.93
2023-04-18T05:02:15.268Z,10.60
2023-04-18T05:05:18.127Z,11.70
2023-04-18T05:08:21.092Z,7.28
2023-04-18T05:11:24.191Z,10.05
2023-04-18T05:14:27.790Z,8.93
2023-04-18T05:17:30.949Z,5.70
2023-04-18T05:20:33.634Z,8.90
2023-04-18T05:23:37.282Z,7.28
2023-04-18T05:26:40.175Z,7.82
2023-04-18T05:29:42.938Z,7.72
2023-04-18T05:32:46.571Z,8.10
2023-04-18T05:35:49.569Z,9.77
2023-04-18T05:38:52.232Z,9.50
2023-04-18T05:41:55.211Z,10.05
2023-04-18T05:44:57.727Z,5.18
2023-04-18T05:48:00.741Z,7.70
2023-04-18T05:51:03.540Z,6.93
2023-04-18T05:54:06.396Z,7.72
2023-04-18T05:57:08.941Z,11.48
2023-04-18T06:00:13.051Z,4.68
2023-04-18T06:03:16.293Z,6.20
2023-04-18T06:06:19.226Z,9.20
2023-04-18T06:09:22.709Z,6.45
2023-04-18T06:12:25.505Z,11.02
2023-04-18T06:15:28.778Z,10.10
2023-04-18T06:18:31.706Z,7.23
2023-04-18T06:21:34.640Z,5.83
2023-04-18T06:24:37.598Z,8.15
2023-04-18T06:27:40.580Z,7.35
2023-04-18T06:30:43.278Z,8.43
2023-04-18T06:33:46.266Z,5.70
2023-04-18T06:36:49.419Z,8.87
2023-04-18T06:39:52.464Z,7.22
2023-04-18T06:42:55.559Z,8.60
2023-04-18T06:45:59.681Z,9.95
2023-04-18T06:49:06.538Z,5.87
2023-04-18T06:52:09.418Z,9.50
2023-04-18T06:55:13.097Z,8.65
2023-04-18T06:58:16.936Z,7.53
2023-04-18T07:01:19.720Z,7.78
2023-04-18T07:04:22.970Z,8.13
2023-04-18T07:07:26.587Z,6.67
2023-04-18T07:10:29.834Z,4.82
2023-04-18T07:13:32.761Z,7.25
2023-04-18T07:16:35.756Z,7.05
2023-04-18T07:19:38.556Z,5.57
2023-04-18T07:22:41.625Z,5.87
2023-04-18T07:25:44.248Z,7.03
2023-04-18T07:28:47.091Z,7.12
2023-04-18T07:31:49.963Z,4.95
2023-04-18T07:34:53.421Z,5.13
2023-04-18T07:37:56.135Z,5.03
2023-04-18T07:41:00.326Z,4.32
2023-04-18T07:44:02.975Z,4.15
2023-04-18T07:47:10.003Z,3.45
2023-04-18T07:50:12.761Z,3.63
2023-04-18T07:53:15.708Z,4.27
2023-04-18T07:56:19.037Z,3.72
2023-04-18T07:59:22.173Z,4.20
2023-04-18T08:02:25.551Z,4.37
2023-04-18T08:05:28.892Z,4.87
2023-04-18T08:08:31.765Z,4.70
2023-04-18T08:11:35.172Z,5.30
2023-04-18T08:14:37.895Z,3.67
2023-04-18T08:17:42.786Z,3.92
2023-04-18T08:20:45.690Z,4.07
2023-04-18T08:23:49.420Z,3.90
2023-04-18T08:26:51.989Z,4.07
2023-04-18T08:29:55.404Z,4.53
2023-04-18T08:32:59.351Z,3.65
2023-04-18T08:36:02.479Z,3.83
2023-04-18T08:39:06.614Z,3.30
2023-04-18T08:42:10.532Z,4.40
2023-04-18T08:45:16.760Z,3.40
2023-04-18T08:48:19.758Z,3.17
2023-04-18T08:51:22.652Z,2.93
2023-04-18T08:54:27.410Z,2.90
2023-04-18T08:57:31.829Z,4.05
2023-04-18T09:00:35.270Z,2.40
2023-04-18T09:03:40.388Z,3.35
2023-04-18T09:06:52.930Z,3.03
2023-04-18T09:09:59.701Z,3.37
2023-04-18T09:13:03.601Z,3.28
2023-04-18T09:16:06.723Z,2.15
2023-04-18T09:19:18.572Z,4.75
2023-04-18T09:22:21.956Z,3.40
2023-04-18T09:25:35.801Z,2.93
2023-04-18T09:28:40.775Z,2.67
2023-04-18T09:32:01.182Z,3.25
2023-04-18T09:35:05.508Z,2.75
2023-04-18T09:38:08.728Z,2.60
2023-04-18T09:41:12.384Z,3.93
2023-04-18T09:44:17.364Z,4.82
2023-04-18T09:47:20.798Z,3.80
2023-04-18T09:50:23.803Z,4.45
2023-04-18T09:53:26.962Z,2.93
2023-04-18T09:56:32.848Z,3.33
2023-04-18T10:00:08.726Z,4.30
2023-04-18T10:03:12.401Z,3.45
2023-04-18T10:06:16.731Z,4.00
2023-04-18T10:09:20.704Z,6.17
2023-04-18T10:12:24.357Z,3.90
2023-04-18T10:15:28.766Z,4.35
2023-04-18T10:18:31.367Z,3.22
2023-04-18T10:21:34.439Z,2.92
2023-04-18T10:24:46.844Z,4.13
2023-04-18T10:27:49.684Z,3.00
2023-04-18T10:30:56.171Z,3.90
2023-04-18T10:37:06.715Z,2.60
2023-04-18T10:40:11.015Z,2.60
2023-04-18T10:43:13.802Z,2.60
2023-04-18T10:46:30.433Z,3.95
2023-04-18T10:49:36.764Z,2.10
2023-04-18T10:52:39.708Z,2.87
2023-04-18T10:55:44.821Z,3.13
2023-04-18T10:58:52.354Z,2.77
2023-04-18T11:02:00.540Z,4.65
2023-04-18T11:05:04.849Z,2.33
2023-04-18T11:08:24.385Z,3.37
2023-04-18T11:11:28.072Z,3.40
2023-04-18T11:14:41.165Z,3.33
2023-04-18T11:17:44.491Z,2.67
2023-04-18T11:20:49.815Z,3.62
2023-04-18T11:23:53.012Z,3.40
2023-04-18T11:26:56.219Z,7.77
2023-04-18T11:29:59.312Z,4.00
2023-04-18T11:33:07.624Z,3.97
2023-04-18T11:36:10.932Z,4.28
2023-04-18T11:39:14.360Z,5.45
2023-04-18T11:42:17.410Z,4.90
2023-04-18T11:45:20.205Z,4.70
2023-04-18T11:48:23.463Z,5.82
2023-04-18T11:51:38.709Z,7.75
2023-04-18T11:54:43.270Z,5.70
2023-04-18T11:57:58.730Z,4.53
2023-04-18T12:01:21.920Z,3.70
2023-04-18T12:04:25.025Z,5.35
2023-04-18T12:07:38.057Z,5.22
2023-04-18T12:10:48.569Z,5.75
2023-04-18T12:13:56.288Z,8.43
2023-04-18T12:16:59.078Z,6.27
2023-04-18T12:20:03.714Z,5.07
2023-04-18T12:23:06.704Z,5.37
2023-04-18T12:26:14.454Z,6.18
2023-04-18T12:29:17.535Z,7.00
2023-04-18T12:32:22.002Z,7.47
2023-04-18T12:35:25.681Z,5.15
2023-04-18T12:38:28.363Z,6.20
2023-04-18T12:41:31.775Z,6.47
2023-04-18T12:44:34.873Z,5.23
2023-04-18T12:47:43.124Z,6.07
2023-04-18T12:50:45.953Z,6.70
2023-04-18T12:53:49.030Z,9.93
2023-04-18T12:56:51.534Z,7.87
2023-04-18T12:59:54.632Z,7.30
2023-04-18T13:02:57.638Z,10.93
2023-04-18T13:06:00.741Z,10.93
2023-04-18T13:09:03.299Z,9.13
2023-04-18T13:12:06.839Z,8.02
2023-04-18T13:15:10.451Z,8.30
2023-04-18T13:18:13.315Z,8.87
2023-04-18T13:21:15.954Z,12.15
2023-04-18T13:24:18.847Z,7.80
2023-04-18T13:27:21.301Z,6.90
2023-04-18T13:30:24.189Z,7.93
2023-04-18T13:33:26.655Z,7.50
2023-04-18T13:36:29.485Z,6.12
2023-04-18T13:39:33.351Z,4.22
2023-04-18T13:42:38.683Z,5.57
2023-04-18T13:45:41.310Z,7.07
2023-04-18T13:48:44.409Z,6.60
2023-04-18T13:51:46.856Z,8.27
2023-04-18T13:54:50.672Z,7.25
2023-04-18T13:57:53.194Z,10.50
2023-04-18T14:00:56.159Z,12.87
2023-04-18T14:03:59.169Z,12.87
2023-04-18T14:07:02.906Z,20.83
2023-04-18T14:10:06.403Z,7.70
2023-04-18T14:13:08.940Z,9.75
2023-04-18T14:16:11.911Z,6.63
2023-04-18T14:19:14.580Z,15.27
2023-04-18T14:22:17.369Z,8.65
2023-04-18T14:25:19.806Z,7.20
2023-04-18T14:28:24.955Z,6.15
2023-04-18T14:31:28.319Z,6.90
2023-04-18T14:34:33.970Z,7.07
2023-04-18T14:37:37.341Z,13.52
2023-04-18T14:40:40.141Z,6.07
2023-04-18T14:43:42.932Z,4.82
2023-04-18T14:46:45.947Z,6.23
2023-04-18T14:49:48.448Z,4.70
2023-04-18T14:52:51.455Z,7.47
2023-04-18T14:55:54.038Z,8.85
2023-04-18T14:58:56.971Z,10.70
2023-04-18T15:01:59.488Z,7.23
2023-04-18T15:05:03.431Z,4.33
2023-04-18T15:08:06.929Z,5.00
2023-04-18T15:11:10.457Z,7.78
2023-04-18T15:14:13.281Z,6.50
2023-04-18T15:17:16.349Z,6.63
2023-04-18T15:20:19.044Z,5.93
2023-04-18T15:23:22.303Z,5.80
2023-04-18T15:26:24.808Z,5.75
2023-04-18T15:29:27.668Z,7.32
2023-04-18T15:32:30.236Z,10.87
2023-04-18T15:35:33.167Z,7.57
2023-04-18T15:38:36.102Z,7.10
2023-04-18T15:41:39.313Z,10.50
2023-04-18T15:44:41.901Z,8.93
2023-04-18T15:47:44.774Z,6.93
2023-04-18T15:50:51.456Z,7.07
2023-04-18T15:53:54.525Z,9.10
2023-04-18T15:56:58.222Z,9.13
2023-04-18T16:00:01.012Z,13.52
2023-04-18T16:03:04.859Z,9.83
2023-04-18T16:06:10.109Z,9.97
2023-04-18T16:09:12.659Z,7.57
2023-04-18T16:12:15.813Z,11.45
2023-04-18T16:15:18.308Z,9.55
2023-04-18T16:18:21.127Z,8.87
2023-04-18T16:21:23.601Z,11.13
2023-04-18T16:24:26.400Z,7.35
2023-04-18T16:27:29.032Z,8.82
2023-04-18T16:30:31.832Z,11.48
2023-04-18T16:33:34.407Z,12.70
2023-04-18T16:36:37.334Z,19.33
2023-04-18T16:39:39.988Z,10.52
2023-04-18T16:42:42.763Z,12.65
2023-04-18T16:45:45.232Z,13.25
2023-04-18T16:48:49.047Z,12.10
2023-04-18T16:51:52.965Z,10.97
2023-04-18T16:54:55.847Z,10.60
2023-04-18T16:57:58.487Z,14.00
2023-04-18T17:01:02.108Z,14.32
2023-04-18T17:04:05.159Z,15.00
2023-04-18T17:07:08.133Z,13.50
2023-04-18T17:10:11.189Z,13.48
2023-04-18T17:13:14.030Z,15.27
2023-04-18T17:16:17.382Z,25.15
2023-04-18T17:19:21.377Z,20.10
2023-04-18T17:22:23.832Z,17.40
2023-04-18T17:25:26.593Z,13.75
2023-04-18T17:28:29.331Z,17.15
2023-04-18T17:31:32.612Z,21.40
2023-04-18T17:34:36.081Z,18.30
2023-04-18T17:37:39.160Z,17.50
2023-04-18T17:40:42.092Z,11.25
2023-04-18T17:43:46.366Z,15.80
2023-04-18T17:46:50.486Z,18.70
2023-04-18T17:49:53.590Z,18.10
2023-04-18T17:52:56.472Z,11.53
2023-04-18T17:55:59.494Z,17.55
2023-04-18T17:59:02.868Z,17.55
2023-04-18T18:02:05.918Z,15.57
2023-04-18T18:05:14.757Z,16.90
2023-04-18T18:08:17.520Z,11.27
2023-04-18T18:11:21.413Z,12.55
2023-04-18T18:14:24.596Z,16.20
2023-04-18T18:17:28.967Z,17.10
2023-04-18T18:20:32.007Z,19.80
2023-04-18T18:23:35.030Z,14.30
2023-04-18T18:26:37.550Z,16.85
2023-04-18T18:29:40.892Z,16.67
2023-04-18T18:32:43.713Z,15.23
2023-04-18T18:35:46.724Z,19.20
2023-04-18T18:38:49.527Z,15.87
2023-04-18T18:41:53.194Z,17.05
2023-04-18T18:44:56.012Z,18.00
2023-04-18T18:47:59.086Z,19.92
2023-04-18T18:51:01.955Z,14.30
2023-04-18T18:54:05.119Z,14.17
2023-04-18T18:57:08.701Z,15.00
2023-04-18T19:00:12.449Z,12.55
2023-04-18T19:03:18.965Z,13.35
2023-04-18T19:06:22.408Z,13.43
2023-04-18T19:09:25.210Z,17.20
2023-04-18T19:12:29.141Z,16.50
2023-04-18T19:15:32.027Z,13.15
2023-04-18T19:18:36.018Z,17.37
2023-04-18T19:21:39.793Z,9.57
2023-04-18T19:24:42.882Z,10.30
2023-04-18T19:27:46.008Z,17.05
2023-04-18T19:30:49.773Z,9.15
2023-04-18T19:33:52.638Z,11.12
2023-04-18T19:36:55.827Z,9.33
2023-04-18T19:39:58.550Z,13.17
2023-04-18T19:43:01.677Z,15.52
2023-04-18T19:46:05.624Z,17.58
2023-04-18T19:49:10.246Z,14.80
2023-04-18T19:52:13.152Z,14.20
2023-04-18T19:55:16.328Z,12.37
2023-04-18T19:58:46.064Z,12.00
2023-04-18T20:01:49.161Z,13.50
2023-04-18T20:04:52.338Z,13.18
2023-04-18T20:07:55.492Z,13.53
2023-04-18T20:10:58.592Z,12.60
2023-04-18T20:14:01.570Z,23.80
2023-04-18T20:17:05.700Z,19.67
2023-04-18T20:20:09.341Z,11.73
2023-04-18T20:23:14.350Z,14.80
2023-04-18T20:26:17.076Z,15.07
2023-04-18T20:29:19.863Z,16.10
2023-04-18T20:32:22.682Z,14.23
2023-04-18T20:35:27.914Z,20.62
2023-04-18T20:38:30.750Z,12.97
2023-04-18T20:41:36.825Z,20.30
2023-04-18T20:44:40.275Z,17.50
2023-04-18T20:47:43.747Z,18.98
2023-04-18T20:50:51.203Z,14.55
2023-04-18T20:53:54.468Z,15.33
2023-04-18T20:56:56.880Z,17.37
2023-04-18T20:59:59.848Z,13.40
2023-04-18T21:03:02.646Z,14.93
2023-04-18T21:06:05.652Z,15.57
2023-04-18T21:09:08.193Z,12.57
2023-04-18T21:12:17.454Z,12.47
2023-04-18T21:15:19.885Z,10.65
2023-04-18T21:18:23.272Z,14.07
2023-04-18T21:21:25.739Z,13.68
2023-04-18T21:24:28.503Z,14.40
2023-04-18T21:27:30.961Z,16.07
2023-04-18T21:30:34.124Z,18.70
2023-04-18T21:33:37.016Z,23.67
2023-04-18T21:36:40.178Z,20.02
2023-04-18T21:39:42.725Z,15.07
2023-04-18T21:42:46.189Z,13.27
2023-04-18T21:45:49.653Z,13.45
2023-04-18T21:48:52.514Z,10.48
2023-04-18T21:51:55.047Z,12.80
2023-04-18T21:54:59.263Z,12.83
2023-04-18T21:58:01.881Z,11.07
2023-04-18T22:01:04.726Z,10.90
2023-04-18T22:04:08.034Z,11.10
2023-04-18T22:07:12.005Z,9.55
2023-04-18T22:10:14.781Z,9.30
2023-04-18T22:13:18.996Z,11.23
2023-04-18T22:16:24.720Z,11.02
2023-04-18T22:19:29.464Z,8.07
2023-04-18T22:22:32.420Z,8.82
2023-04-18T22:25:35.014Z,7.30
2023-04-18T22:28:37.721Z,9.80
2023-04-18T22:31:40.225Z,9.98
2023-04-18T22:34:43.082Z,5.97
2023-04-18T22:37:45.671Z,10.50
2023-04-18T22:40:48.748Z,9.20
2023-04-18T22:43:51.345Z,11.13
2023-04-18T22:46:57.036Z,13.27
2023-04-18T22:49:59.537Z,10.68
2023-04-18T22:53:02.293Z,11.40
2023-04-18T22:56:05.278Z,9.53
2023-04-18T22:59:08.012Z,9.17
2023-04-18T23:02:11.013Z,10.90
2023-04-18T23:05:16.104Z,11.07
2023-04-18T23:08:22.574Z,10.50
2023-04-18T23:11:26.292Z,7.90
2023-04-18T23:14:29.459Z,7.37
2023-04-18T23:17:32.244Z,9.40
2023-04-18T23:20:34.942Z,14.90
2023-04-18T23:23:37.956Z,8.70
2023-04-18T23:26:41.043Z,7.80
2023-04-18T23:29:47.746Z,10.83
2023-04-18T23:32:50.567Z,10.45
2023-04-18T23:35:53.317Z,8.30
2023-04-18T23:38:56.293Z,9.07
2023-04-18T23:41:59.106Z,7.97
2023-04-18T23:45:01.781Z,8.77
2023-04-18T23:48:05.063Z,8.93
2023-04-18T23:51:07.536Z,8.20
2023-04-18T23:54:10.877Z,6.82
2023-04-18T23:57:13.457Z,6.17
